createdAt,value
2018-11-23T00:01:52.003Z,2.30
2018-11-23T00:04:55.091Z,2.20
2018-11-23T00:07:58.842Z,2.30
2018-11-23T00:11:01.974Z,2.20
2018-11-23T00:14:05.066Z,2.30
2018-11-23T00:17:08.139Z,2.30
2018-11-23T00:20:13.497Z,2.40
2018-11-23T00:23:16.558Z,2.30
2018-11-23T00:26:19.642Z,2.40
2018-11-23T00:29:22.707Z,2.30
2018-11-23T00:32:25.815Z,2.30
2018-11-23T00:35:30.170Z,2.30
2018-11-23T00:38:33.259Z,2.30
2018-11-23T00:41:36.654Z,2.40
2018-11-23T00:44:39.709Z,2.40
2018-11-23T00:47:43.446Z,2.40
2018-11-23T00:50:46.519Z,2.30
2018-11-23T00:53:49.663Z,2.40
2018-11-23T00:56:52.730Z,2.40
2018-11-23T00:59:55.819Z,2.40
2018-11-23T01:02:59.583Z,2.40
2018-11-23T01:06:02.678Z,2.40
2018-11-23T01:09:08.386Z,2.40
2018-11-23T01:12:11.499Z,2.40
2018-11-23T01:15:14.627Z,2.30
2018-11-23T01:18:17.727Z,2.40
2018-11-23T01:21:20.820Z,2.30
2018-11-23T01:24:23.882Z,2.30
2018-11-23T01:27:26.983Z,2.30
2018-11-23T01:30:31.199Z,2.30
2018-11-23T01:33:34.286Z,2.20
2018-11-23T01:36:37.362Z,2.20
2018-11-23T01:39:40.458Z,2.20
2018-11-23T01:42:43.694Z,2.20
2018-11-23T01:45:46.775Z,2.20
2018-11-23T01:48:49.859Z,2.10
2018-11-23T01:51:52.950Z,2.20
2018-11-23T01:54:56.047Z,2.20
2018-11-23T01:57:59.123Z,2.20
2018-11-23T02:01:02.227Z,2.10
2018-11-23T02:04:05.535Z,2.10
2018-11-23T02:07:08.680Z,2.20
2018-11-23T02:10:13.058Z,2.20
2018-11-23T02:13:16.197Z,2.30
2018-11-23T02:16:19.287Z,2.20
2018-11-23T02:19:22.538Z,2.30
2018-11-23T02:22:26.738Z,2.40
2018-11-23T02:25:29.832Z,2.30
2018-11-23T02:28:32.940Z,2.30
2018-11-23T02:31:37.265Z,2.30
2018-11-23T02:34:40.331Z,2.30
2018-11-23T02:37:43.438Z,2.30
2018-11-23T02:40:46.519Z,2.30
2018-11-23T02:43:49.924Z,2.20
2018-11-23T02:46:53.024Z,2.10
2018-11-23T02:49:56.123Z,1.90
2018-11-23T02:52:59.210Z,1.90
2018-11-23T02:56:02.303Z,1.70
2018-11-23T02:59:05.846Z,1.70
2018-11-23T03:02:08.936Z,1.70
2018-11-23T03:05:14.111Z,1.70
2018-11-23T03:08:17.225Z,1.60
2018-11-23T03:11:20.311Z,1.60
2018-11-23T03:14:23.427Z,1.60
2018-11-23T03:17:26.515Z,1.70
2018-11-23T03:20:29.615Z,1.70
2018-11-23T03:23:32.731Z,1.60
2018-11-23T03:26:35.830Z,1.60
2018-11-23T03:29:38.930Z,1.60
2018-11-23T03:32:42.143Z,1.60
2018-11-23T03:35:45.236Z,1.60
2018-11-23T03:38:48.306Z,1.60
2018-11-23T03:41:51.378Z,1.60
2018-11-23T03:44:54.451Z,1.70
2018-11-23T03:47:57.607Z,1.70
2018-11-23T03:51:00.714Z,1.70
2018-11-23T03:54:04.107Z,1.80
2018-11-23T03:57:07.215Z,1.70
2018-11-23T04:00:17.344Z,1.80
2018-11-23T04:03:18.906Z,1.80
2018-11-23T04:06:21.999Z,1.70
2018-11-23T04:09:25.110Z,1.70
2018-11-23T04:12:28.189Z,1.60
2018-11-23T04:15:31.275Z,1.60
2018-11-23T04:18:34.360Z,1.60
2018-11-23T04:21:37.447Z,1.60
2018-11-23T04:24:40.505Z,1.50
2018-11-23T04:27:43.947Z,1.50
2018-11-23T04:30:50.366Z,1.50
2018-11-23T04:33:53.702Z,1.50
2018-11-23T04:36:57.097Z,1.50
2018-11-23T04:40:00.195Z,1.60
2018-11-23T04:43:03.279Z,1.60
2018-11-23T04:46:06.375Z,1.60
2018-11-23T04:49:09.442Z,1.60
2018-11-23T04:52:12.545Z,1.60
2018-11-23T04:55:15.616Z,1.60
2018-11-23T04:58:18.710Z,1.60
2018-11-23T05:01:21.959Z,1.50
2018-11-23T05:04:25.035Z,1.50
2018-11-23T05:07:28.151Z,1.40
2018-11-23T05:10:31.194Z,1.40
2018-11-23T05:13:34.282Z,1.30
2018-11-23T05:16:37.352Z,1.30
2018-11-23T05:19:40.603Z,1.20
2018-11-23T05:22:43.907Z,1.20
2018-11-23T05:25:47.004Z,1.20
2018-11-23T05:28:50.126Z,1.20
2018-11-23T05:31:53.214Z,1.20
2018-11-23T05:34:56.463Z,1.20
2018-11-23T05:37:59.524Z,1.20
2018-11-23T05:41:02.619Z,1.20
2018-11-23T05:44:05.746Z,1.20
2018-11-23T05:47:08.832Z,1.20
2018-11-23T05:50:14.174Z,1.30
2018-11-23T05:53:17.259Z,1.30
2018-11-23T05:56:20.342Z,1.30
2018-11-23T05:59:23.435Z,1.30
2018-11-23T06:02:26.515Z,1.30
2018-11-23T06:05:29.605Z,1.20
2018-11-23T06:08:32.702Z,1.20
2018-11-23T06:11:35.928Z,1.20
2018-11-23T06:14:39.006Z,1.20
2018-11-23T06:17:42.390Z,1.20
2018-11-23T06:20:45.475Z,1.10
2018-11-23T06:23:48.533Z,1.10
2018-11-23T06:26:51.630Z,1.00
2018-11-23T06:29:54.720Z,1.00
2018-11-23T06:33:09.387Z,0.90
2018-11-23T06:36:12.483Z,0.90
2018-11-23T06:39:15.562Z,0.90
2018-11-23T06:42:18.663Z,0.90
2018-11-23T06:45:21.818Z,1.00
2018-11-23T06:48:24.906Z,1.00
2018-11-23T06:54:37.495Z,1.10
2018-11-23T06:57:41.242Z,1.00
2018-11-23T07:00:44.330Z,1.00
2018-11-23T07:03:47.461Z,1.00
2018-11-23T07:06:50.699Z,1.00
2018-11-23T07:09:53.813Z,1.10
2018-11-23T07:12:56.906Z,1.10
2018-11-23T07:15:59.991Z,1.10
2018-11-23T07:19:03.087Z,1.00
2018-11-23T07:22:06.230Z,1.10
2018-11-23T07:25:10.890Z,1.20
2018-11-23T07:28:15.646Z,1.30
2018-11-23T07:31:17.078Z,1.40
2018-11-23T07:34:20.179Z,1.60
2018-11-23T07:37:23.267Z,1.70
2018-11-23T07:40:39.571Z,1.90
2018-11-23T07:43:42.670Z,2.10
2018-11-23T07:46:45.747Z,2.20
2018-11-23T07:49:48.843Z,2.40
2018-11-23T07:53:03.827Z,2.50
2018-11-23T07:56:06.950Z,2.60
2018-11-23T07:59:10.192Z,2.70
2018-11-23T08:02:13.679Z,3.00
2018-11-23T08:05:17.712Z,3.20
2018-11-23T08:08:20.813Z,3.60
2018-11-23T08:11:23.896Z,3.80
2018-11-23T08:14:26.984Z,3.90
2018-11-23T08:17:30.098Z,4.00
2018-11-23T08:20:33.187Z,4.10
2018-11-23T08:23:36.319Z,4.20
2018-11-23T08:26:39.400Z,4.20
2018-11-23T08:29:42.514Z,4.20
2018-11-23T08:32:45.719Z,4.30
2018-11-23T08:35:48.821Z,4.40
2018-11-23T08:38:52.007Z,4.50
2018-11-23T08:41:55.126Z,4.60
2018-11-23T08:44:58.205Z,4.70
2018-11-23T08:48:01.292Z,4.80
2018-11-23T08:51:04.570Z,4.80
2018-11-23T08:54:07.683Z,4.90
2018-11-23T08:57:10.773Z,5.00
2018-11-23T09:00:17.926Z,5.00
2018-11-23T09:03:21.011Z,5.10
2018-11-23T09:06:36.101Z,5.10
2018-11-23T09:09:43.971Z,4.90
2018-11-23T09:12:51.883Z,4.90
2018-11-23T09:15:54.955Z,5.00
2018-11-23T09:18:58.034Z,5.00
2018-11-23T09:22:01.103Z,5.10
2018-11-23T09:25:04.659Z,5.00
2018-11-23T09:28:07.738Z,5.00
2018-11-23T09:31:10.819Z,5.00
2018-11-23T09:34:14.059Z,5.00
2018-11-23T09:37:17.127Z,5.20
2018-11-23T09:40:21.610Z,5.30
2018-11-23T09:43:24.881Z,5.40
2018-11-23T09:46:27.974Z,5.40
2018-11-23T09:49:31.054Z,5.40
2018-11-23T09:52:34.213Z,5.30
2018-11-23T09:55:37.768Z,5.30
2018-11-23T09:58:49.398Z,5.20
2018-11-23T10:01:52.506Z,5.00
2018-11-23T10:04:55.635Z,4.90
2018-11-23T10:08:00.087Z,4.90
2018-11-23T10:11:03.180Z,4.70
2018-11-23T10:14:06.474Z,4.70
2018-11-23T10:17:09.533Z,4.60
2018-11-23T10:20:15.523Z,4.60
2018-11-23T10:23:18.614Z,4.60
2018-11-23T10:26:21.686Z,4.60
2018-11-23T10:29:24.779Z,4.70
2018-11-23T10:32:27.897Z,4.90
2018-11-23T10:35:31.128Z,5.10
2018-11-23T10:38:34.203Z,5.10
2018-11-23T10:41:37.282Z,5.00
2018-11-23T10:44:40.371Z,4.90
2018-11-23T10:47:43.524Z,4.70
2018-11-23T10:50:46.611Z,4.60
2018-11-23T10:53:49.692Z,4.50
2018-11-23T10:56:52.811Z,4.40
2018-11-23T10:59:55.910Z,4.60
2018-11-23T11:03:17.492Z,4.70
2018-11-23T11:06:25.965Z,4.90
2018-11-23T11:09:29.053Z,5.10
2018-11-23T11:12:32.143Z,5.20
2018-11-23T11:15:35.240Z,5.30
2018-11-23T11:18:38.331Z,5.10
2018-11-23T11:21:41.471Z,5.20
2018-11-23T11:24:44.547Z,5.10
2018-11-23T11:27:47.663Z,5.10
2018-11-23T11:30:50.764Z,5.00
2018-11-23T11:33:53.876Z,4.80
2018-11-23T11:36:56.959Z,4.70
2018-11-23T11:40:00.069Z,4.60
2018-11-23T11:43:03.130Z,4.60
2018-11-23T11:46:06.251Z,4.60
2018-11-23T11:49:09.315Z,4.60
2018-11-23T11:52:12.442Z,4.60
2018-11-23T11:55:16.835Z,4.60
2018-11-23T11:58:19.927Z,4.70
2018-11-23T12:01:24.674Z,4.70
2018-11-23T12:04:27.739Z,4.70
2018-11-23T12:07:39.550Z,4.80
2018-11-23T12:10:42.627Z,4.80
2018-11-23T12:13:45.718Z,4.70
2018-11-23T12:16:48.842Z,4.60
2018-11-23T12:19:51.917Z,4.50
2018-11-23T12:22:55.017Z,4.40
2018-11-23T12:25:58.089Z,4.40
2018-11-23T12:29:01.213Z,4.40
2018-11-23T12:32:04.341Z,4.40
2018-11-23T12:35:08.661Z,4.40
2018-11-23T12:38:11.715Z,4.30
2018-11-23T12:41:16.330Z,4.20
2018-11-23T12:44:19.422Z,4.30
2018-11-23T12:47:22.514Z,4.30
2018-11-23T12:50:25.612Z,4.40
2018-11-23T12:53:28.686Z,4.50
2018-11-23T12:56:31.763Z,4.60
2018-11-23T12:59:34.974Z,4.70
2018-11-23T13:02:38.072Z,4.80
2018-11-23T13:05:41.147Z,4.90
2018-11-23T13:08:44.215Z,4.90
2018-11-23T13:11:47.395Z,4.90
2018-11-23T13:14:50.603Z,4.90
2018-11-23T13:17:53.814Z,4.90
2018-11-23T13:20:56.899Z,5.00
2018-11-23T13:24:00.411Z,5.10
2018-11-23T13:27:03.503Z,5.10
2018-11-23T13:30:11.032Z,5.10
2018-11-23T13:33:14.119Z,5.00
2018-11-23T13:36:17.191Z,4.90
2018-11-23T13:39:20.300Z,4.90
2018-11-23T13:42:23.474Z,4.80
2018-11-23T13:45:28.023Z,4.80
2018-11-23T13:48:31.119Z,4.70
2018-11-23T13:51:34.186Z,4.70
2018-11-23T13:54:37.285Z,4.60
2018-11-23T13:57:40.393Z,4.60
2018-11-23T14:00:43.470Z,4.60
2018-11-23T14:03:46.562Z,4.50
2018-11-23T14:06:49.624Z,4.40
2018-11-23T14:09:52.731Z,4.30
2018-11-23T14:12:55.819Z,4.20
2018-11-23T14:15:58.903Z,4.20
2018-11-23T14:19:02.298Z,4.30
2018-11-23T14:22:05.419Z,4.30
2018-11-23T14:25:10.143Z,4.20
2018-11-23T14:28:13.206Z,4.10
2018-11-23T14:31:16.372Z,4.10
2018-11-23T14:34:19.463Z,4.00
2018-11-23T14:37:22.557Z,4.00
2018-11-23T14:40:25.678Z,4.00
2018-11-23T14:43:28.743Z,4.00
2018-11-23T14:46:31.838Z,4.00
2018-11-23T14:49:34.942Z,4.00
2018-11-23T14:52:38.058Z,4.00
2018-11-23T14:55:41.134Z,3.90
2018-11-23T14:58:44.230Z,3.80
2018-11-23T15:01:51.980Z,3.70
2018-11-23T15:04:50.523Z,3.70
2018-11-23T15:07:53.601Z,3.70
2018-11-23T15:10:56.686Z,3.50
2018-11-23T15:13:59.825Z,3.50
2018-11-23T15:17:02.875Z,3.40
2018-11-23T15:20:09.627Z,3.40
2018-11-23T15:23:14.154Z,3.40
2018-11-23T15:26:17.218Z,3.40
2018-11-23T15:29:20.317Z,3.40
2018-11-23T15:32:34.139Z,3.40
2018-11-23T15:35:37.872Z,3.40
2018-11-23T15:38:40.959Z,3.30
2018-11-23T15:41:44.045Z,3.30
2018-11-23T15:44:47.138Z,3.30
2018-11-23T15:47:50.327Z,3.30
2018-11-23T15:50:53.416Z,3.30
2018-11-23T15:53:56.524Z,3.20
2018-11-23T15:56:59.607Z,3.20
2018-11-23T16:00:02.682Z,3.10
2018-11-23T16:03:07.979Z,3.10
2018-11-23T16:06:11.051Z,3.10
2018-11-23T16:09:14.298Z,3.10
2018-11-23T16:12:17.367Z,3.20
2018-11-23T16:15:21.039Z,3.20
2018-11-23T16:18:24.142Z,3.20
2018-11-23T16:21:27.238Z,3.20
2018-11-23T16:24:32.362Z,3.20
2018-11-23T16:27:35.475Z,3.10
2018-11-23T16:30:40.023Z,3.10
2018-11-23T16:33:43.123Z,3.10
2018-11-23T16:36:46.193Z,3.10
2018-11-23T16:39:49.310Z,3.00
2018-11-23T16:42:52.996Z,3.00
2018-11-23T16:45:56.083Z,3.00
2018-11-23T16:48:59.174Z,3.00
2018-11-23T16:52:02.258Z,2.90
2018-11-23T16:55:06.754Z,2.90
2018-11-23T16:58:11.235Z,2.90
2018-11-23T17:01:14.314Z,3.00
2018-11-23T17:04:17.413Z,3.00
2018-11-23T17:07:20.899Z,3.00
2018-11-23T17:10:24.116Z,3.00
2018-11-23T17:13:27.198Z,3.00
2018-11-23T17:16:30.295Z,2.90
2018-11-23T17:19:33.375Z,2.80
2018-11-23T17:22:36.450Z,2.70
2018-11-23T17:25:39.538Z,2.80
2018-11-23T17:28:42.619Z,2.80
2018-11-23T17:31:45.748Z,2.80
2018-11-23T17:34:48.843Z,2.70
2018-11-23T17:37:51.918Z,2.70
2018-11-23T17:40:55.007Z,2.60
2018-11-23T17:43:58.160Z,2.50
2018-11-23T17:47:01.223Z,2.50
2018-11-23T17:50:05.778Z,2.40
2018-11-23T17:53:08.898Z,2.40
2018-11-23T17:56:12.060Z,2.50
2018-11-23T17:59:15.138Z,2.40
2018-11-23T18:02:19.938Z,2.40
2018-11-23T18:05:23.939Z,2.40
2018-11-23T18:08:27.039Z,2.40
2018-11-23T18:11:30.135Z,2.40
2018-11-23T18:14:33.255Z,2.40
2018-11-23T18:17:36.515Z,2.40
2018-11-23T18:20:39.626Z,2.40
2018-11-23T18:23:42.706Z,2.40
2018-11-23T18:26:45.782Z,2.30
2018-11-23T18:29:48.868Z,2.40
2018-11-23T18:32:51.962Z,2.30
2018-11-23T18:35:55.054Z,2.30
2018-11-23T18:38:58.146Z,2.30
2018-11-23T18:42:01.238Z,2.30
2018-11-23T18:45:06.742Z,2.40
2018-11-23T18:48:09.821Z,2.40
2018-11-23T18:51:12.914Z,2.40
2018-11-23T18:54:16.015Z,2.40
2018-11-23T18:57:19.084Z,2.30
2018-11-23T19:00:27.739Z,2.20
2018-11-23T19:03:30.854Z,2.20
2018-11-23T19:06:33.911Z,2.10
2018-11-23T19:09:36.999Z,2.10
2018-11-23T19:12:41.286Z,2.10
2018-11-23T19:15:44.358Z,2.10
2018-11-23T19:18:47.439Z,2.10
2018-11-23T19:21:50.607Z,2.10
2018-11-23T19:24:53.702Z,2.10
2018-11-23T19:27:56.761Z,2.10
2018-11-23T19:30:59.883Z,2.10
2018-11-23T19:34:03.102Z,2.00
2018-11-23T19:37:06.175Z,2.00
2018-11-23T19:40:11.173Z,2.00
2018-11-23T19:43:14.218Z,2.00
2018-11-23T19:46:17.535Z,2.00
2018-11-23T19:49:20.602Z,2.00
2018-11-23T19:52:23.694Z,2.00
2018-11-23T19:55:26.862Z,1.90
2018-11-23T19:58:30.011Z,1.90
2018-11-23T20:01:33.087Z,1.80
2018-11-23T20:04:36.284Z,1.80
2018-11-23T20:07:39.357Z,1.80
2018-11-23T20:10:42.463Z,1.80
2018-11-23T20:13:45.751Z,1.80
2018-11-23T20:16:48.829Z,1.80
2018-11-23T20:19:51.915Z,1.90
2018-11-23T20:22:55.022Z,1.90
2018-11-23T20:25:58.107Z,1.80
2018-11-23T20:29:01.181Z,1.70
2018-11-23T20:32:04.280Z,1.70
2018-11-23T20:35:08.996Z,1.70
2018-11-23T20:38:12.063Z,1.70
2018-11-23T20:41:15.164Z,1.70
2018-11-23T20:44:18.227Z,1.80
2018-11-23T20:47:21.332Z,1.80
2018-11-23T20:50:24.422Z,1.90
2018-11-23T20:53:27.514Z,1.90
2018-11-23T20:56:30.613Z,1.90
2018-11-23T20:59:38.706Z,1.90
2018-11-23T21:02:37.494Z,1.90
2018-11-23T21:05:40.575Z,1.90
2018-11-23T21:08:44.075Z,1.90
2018-11-23T21:11:47.147Z,2.00
2018-11-23T21:14:50.246Z,2.00
2018-11-23T21:17:53.542Z,2.00
2018-11-23T21:20:56.638Z,2.00
2018-11-23T21:24:01.579Z,2.00
2018-11-23T21:27:04.685Z,1.90
2018-11-23T21:30:14.043Z,1.90
2018-11-23T21:33:17.135Z,1.90
2018-11-23T21:36:20.209Z,1.90
2018-11-23T21:39:23.294Z,1.90
2018-11-23T21:42:41.217Z,1.90
2018-11-23T21:45:44.296Z,1.80
2018-11-23T21:48:47.454Z,1.70
2018-11-23T21:51:50.535Z,1.80
2018-11-23T21:54:53.623Z,1.80
2018-11-23T21:57:56.858Z,1.80
2018-11-23T22:00:59.956Z,1.80
2018-11-23T22:04:06.612Z,1.80
2018-11-23T22:07:06.128Z,1.80
2018-11-23T22:10:11.463Z,1.90
2018-11-23T22:13:14.555Z,1.90
2018-11-23T22:16:17.646Z,2.00
2018-11-23T22:19:20.723Z,1.90
2018-11-23T22:22:23.842Z,1.90
2018-11-23T22:25:26.890Z,2.00
2018-11-23T22:28:29.987Z,2.00
2018-11-23T22:31:33.135Z,1.90
2018-11-23T22:34:36.207Z,1.90
2018-11-23T22:37:39.286Z,1.80
2018-11-23T22:40:42.368Z,1.80
2018-11-23T22:43:45.447Z,1.80
2018-11-23T22:46:48.521Z,1.90
2018-11-23T22:49:51.599Z,1.90
2018-11-23T22:52:54.678Z,1.80
2018-11-23T22:55:57.808Z,1.80
2018-11-23T22:59:00.906Z,1.80
2018-11-23T23:02:03.975Z,1.80
2018-11-23T23:05:07.455Z,1.80
2018-11-23T23:08:10.514Z,1.80
2018-11-23T23:11:13.598Z,1.80
2018-11-23T23:14:16.691Z,1.80
2018-11-23T23:17:19.755Z,1.80
2018-11-23T23:20:23.284Z,1.80
2018-11-23T23:23:26.362Z,1.70
2018-11-23T23:26:29.433Z,1.70
2018-11-23T23:29:32.515Z,1.70
2018-11-23T23:32:35.574Z,1.70
2018-11-23T23:35:38.659Z,1.70
2018-11-23T23:38:41.730Z,1.70
2018-11-23T23:41:44.834Z,1.70
2018-11-23T23:44:47.891Z,1.70
2018-11-23T23:47:50.983Z,1.70
2018-11-23T23:50:54.046Z,1.70
2018-11-23T23:53:57.136Z,1.80
2018-11-23T23:57:00.235Z,1.80
